Time;durP1;ratioP1;P1;durP2;ratioP2;P2;SDS_P1;SDS_P2;PMS_P1;PMS_P2;Temp;Humidity;BMP_temperature;BMP_pressure;BME280_temperature;BME280_humidity;BME280_pressure;Samples;Min_cycle;Max_cycle;Signal;HPM_P1;HPM_P2
2021/05/29 00:00:48;;;;;;;7.73;7.13;;;11.90;99.90;;;;;;5015007;28;20362;-79
2021/05/29 00:03:14;;;;;;;7.47;6.97;;;11.80;99.90;;;;;;5032578;28;20196;-78
2021/05/29 00:05:42;;;;;;;7.40;6.80;;;11.80;99.90;;;;;;5032636;28;20220;-79
2021/05/29 00:08:09;;;;;;;7.40;6.80;;;11.80;99.90;;;;;;5032364;28;20196;-79
2021/05/29 00:10:37;;;;;;;7.33;6.83;;;11.80;99.90;;;;;;5014853;28;20196;-79
2021/05/29 00:13:03;;;;;;;7.70;7.00;;;11.80;99.90;;;;;;5032901;28;20726;-79
2021/05/29 00:15:30;;;;;;;8.00;7.30;;;11.80;99.90;;;;;;5018105;28;20220;-79
2021/05/29 00:17:57;;;;;;;7.43;6.73;;;11.80;99.90;;;;;;5016028;28;20207;-79
2021/05/29 00:20:23;;;;;;;7.50;6.90;;;11.80;99.90;;;;;;5016262;28;20239;-80
2021/05/29 00:22:50;;;;;;;7.03;6.50;;;11.70;99.90;;;;;;5015893;28;20204;-80
2021/05/29 00:25:17;;;;;;;7.40;6.80;;;11.70;99.90;;;;;;5034130;28;20253;-79
2021/05/29 00:27:43;;;;;;;8.80;7.77;;;11.70;99.90;;;;;;5015526;28;20224;-79
2021/05/29 00:30:11;;;;;;;7.87;7.27;;;11.70;99.90;;;;;;5016356;28;20203;-79
2021/05/29 00:32:38;;;;;;;6.90;6.40;;;11.60;99.90;;;;;;5033029;28;20202;-80
2021/05/29 00:35:06;;;;;;;7.73;7.13;;;11.60;99.90;;;;;;5015476;28;20224;-79
2021/05/29 00:37:32;;;;;;;7.70;6.90;;;11.70;99.90;;;;;;5016083;28;20199;-79
2021/05/29 00:39:59;;;;;;;7.27;6.77;;;11.70;99.90;;;;;;5015217;28;20573;-79
2021/05/29 00:42:26;;;;;;;7.40;6.80;;;11.70;99.90;;;;;;5015970;28;20219;-79
2021/05/29 00:44:54;;;;;;;7.60;7.00;;;11.60;99.90;;;;;;5014670;28;20220;-79
2021/05/29 00:47:22;;;;;;;8.87;7.97;;;11.60;99.90;;;;;;5031869;28;20726;-79
2021/05/29 00:49:50;;;;;;;7.90;7.30;;;11.60;99.90;;;;;;5031831;28;20188;-79
2021/05/29 00:52:17;;;;;;;7.67;7.07;;;11.50;99.90;;;;;;5031365;28;20211;-79
2021/05/29 00:54:44;;;;;;;7.40;6.80;;;11.50;99.90;;;;;;5031846;28;20224;-79
2021/05/29 00:57:13;;;;;;;7.50;6.90;;;11.50;99.90;;;;;;5007945;28;20195;-79
2021/05/29 00:59:41;;;;;;;7.23;6.73;;;11.40;99.90;;;;;;5031768;28;20208;-79
2021/05/29 01:02:09;;;;;;;7.60;7.00;;;11.40;99.90;;;;;;5014102;28;20575;-78
2021/05/29 01:04:36;;;;;;;7.90;7.20;;;11.40;99.90;;;;;;5006364;28;20216;-79
2021/05/29 01:07:03;;;;;;;7.03;6.53;;;11.40;99.90;;;;;;5013784;28;20665;-79
2021/05/29 01:09:30;;;;;;;7.83;7.23;;;11.40;99.90;;;;;;5010308;28;20203;-79
2021/05/29 01:11:56;;;;;;;7.97;7.30;;;11.40;99.90;;;;;;5032086;28;20198;-79
2021/05/29 01:14:24;;;;;;;7.87;7.27;;;11.40;99.90;;;;;;5013907;28;20221;-79
2021/05/29 01:16:56;;;;;;;8.00;7.40;;;11.40;99.90;;;;;;5031453;28;20196;-79
2021/05/29 01:19:23;;;;;;;7.77;7.17;;;11.40;99.90;;;;;;5031499;28;20208;-78
2021/05/29 01:21:50;;;;;;;7.80;7.20;;;11.40;99.90;;;;;;5013938;28;20192;-79
2021/05/29 01:24:19;;;;;;;7.80;7.10;;;11.40;99.90;;;;;;5013743;28;20232;-79
2021/05/29 01:26:46;;;;;;;9.27;8.47;;;11.40;99.90;;;;;;5013729;28;20218;-79
2021/05/29 01:29:13;;;;;;;8.00;7.30;;;11.40;99.90;;;;;;5031504;28;20703;-79
2021/05/29 01:31:39;;;;;;;8.20;7.50;;;11.40;99.90;;;;;;5013489;28;20204;-79
2021/05/29 01:34:06;;;;;;;7.70;7.10;;;11.40;99.90;;;;;;5031524;28;20220;-79
2021/05/29 01:36:32;;;;;;;7.40;6.80;;;11.40;99.90;;;;;;5015354;28;20196;-79
2021/05/29 01:38:59;;;;;;;7.40;6.90;;;11.40;99.90;;;;;;5031302;28;20734;-79
2021/05/29 01:41:26;;;;;;;7.67;7.03;;;11.40;99.90;;;;;;5014089;28;20980;-79
2021/05/29 01:43:53;;;;;;;7.80;7.20;;;11.40;99.90;;;;;;5031632;28;20661;-79
2021/05/29 01:46:21;;;;;;;7.10;6.60;;;11.40;99.90;;;;;;5031577;28;20238;-78
2021/05/29 01:48:50;;;;;;;7.90;7.30;;;11.30;99.90;;;;;;5013762;28;20196;-78
2021/05/29 01:51:18;;;;;;;8.57;7.80;;;11.30;99.90;;;;;;5016738;28;20206;-78
2021/05/29 01:53:45;;;;;;;7.87;7.27;;;11.30;99.90;;;;;;5017065;28;20203;-78
2021/05/29 01:56:12;;;;;;;7.67;7.07;;;11.30;99.90;;;;;;5034931;28;20238;-78
2021/05/29 01:58:40;;;;;;;8.50;7.70;;;11.30;99.90;;;;;;5017294;28;20200;-79
2021/05/29 02:01:08;;;;;;;7.90;7.23;;;11.30;99.90;;;;;;5017140;28;20216;-78
2021/05/29 02:03:36;;;;;;;7.60;7.00;;;11.30;99.90;;;;;;5010752;28;20207;-79
2021/05/29 02:06:02;;;;;;;7.50;6.90;;;11.20;99.90;;;;;;5016969;28;20223;-79
2021/05/29 02:08:29;;;;;;;7.63;7.13;;;11.20;99.90;;;;;;5016998;28;20253;-79
2021/05/29 02:11:01;;;;;;;8.30;7.70;;;11.20;99.90;;;;;;5034827;28;20188;-79
2021/05/29 02:13:30;;;;;;;8.90;8.10;;;11.20;99.90;;;;;;5035500;28;20191;-79
2021/05/29 02:15:57;;;;;;;7.83;7.23;;;11.20;99.90;;;;;;5037258;28;20273;-79
2021/05/29 02:18:24;;;;;;;8.63;7.83;;;11.20;99.90;;;;;;5016917;28;20269;-78
2021/05/29 02:20:52;;;;;;;9.20;8.40;;;11.20;99.90;;;;;;5018295;28;20230;-79
2021/05/29 02:23:21;;;;;;;8.50;7.80;;;11.20;99.90;;;;;;5032725;28;20200;-79
2021/05/29 02:25:48;;;;;;;7.97;7.37;;;11.20;99.90;;;;;;5052918;28;20231;-79
2021/05/29 02:28:15;;;;;;;8.60;7.80;;;11.10;99.90;;;;;;5031291;28;20200;-79
2021/05/29 02:30:42;;;;;;;8.90;8.20;;;11.10;99.90;;;;;;5035687;28;20257;-78
2021/05/29 02:33:09;;;;;;;8.70;8.00;;;11.00;99.90;;;;;;5017650;28;20219;-79
2021/05/29 02:35:36;;;;;;;8.77;8.00;;;11.10;99.90;;;;;;5035100;28;20212;-79
2021/05/29 02:38:03;;;;;;;8.37;7.67;;;11.00;99.90;;;;;;5016322;28;20208;-79
2021/05/29 02:40:30;;;;;;;8.23;7.53;;;11.00;99.90;;;;;;5016898;28;20220;-80
2021/05/29 02:42:56;;;;;;;8.20;7.60;;;11.00;99.90;;;;;;5024439;28;20204;-80
2021/05/29 02:45:23;;;;;;;9.47;8.70;;;11.00;99.90;;;;;;5027799;28;20226;-82
2021/05/29 02:47:49;;;;;;;8.57;7.90;;;11.00;99.90;;;;;;5040999;28;20207;-75
2021/05/29 02:50:17;;;;;;;9.43;8.27;;;11.00;99.90;;;;;;5039293;28;20188;-76
2021/05/29 02:52:43;;;;;;;8.97;8.27;;;11.00;99.90;;;;;;5034611;28;20200;-76
2021/05/29 02:55:20;;;;;;;9.37;8.57;;;11.00;99.90;;;;;;5016144;28;20608;-76
2021/05/29 02:57:47;;;;;;;9.63;8.80;;;11.00;99.90;;;;;;5016359;28;20676;-77
2021/05/29 03:00:14;;;;;;;8.97;8.27;;;11.10;99.90;;;;;;5015116;28;20310;-76
2021/05/29 03:02:40;;;;;;;8.50;7.87;;;11.00;99.90;;;;;;5013266;28;20213;-76
2021/05/29 03:05:08;;;;;;;8.13;7.53;;;11.00;99.90;;;;;;5032310;28;20230;-76
2021/05/29 03:07:35;;;;;;;8.47;7.87;;;10.90;99.90;;;;;;5006225;28;20224;-76
2021/05/29 03:10:02;;;;;;;8.70;8.00;;;10.90;99.90;;;;;;5028781;28;20192;-76
2021/05/29 03:12:29;;;;;;;8.77;8.07;;;10.90;99.90;;;;;;5016571;28;20213;-76
2021/05/29 03:14:55;;;;;;;8.53;7.83;;;10.90;99.90;;;;;;5015416;28;20220;-76
2021/05/29 03:17:21;;;;;;;8.77;8.00;;;10.90;99.90;;;;;;5015130;28;20254;-77
2021/05/29 03:19:48;;;;;;;8.93;8.17;;;10.90;99.90;;;;;;5027285;28;20232;-76
2021/05/29 03:22:15;;;;;;;8.40;7.80;;;10.80;99.90;;;;;;5026532;28;20189;-76
2021/05/29 03:24:42;;;;;;;9.73;8.93;;;10.80;99.90;;;;;;5051390;22;20227;-75
2021/05/29 03:27:08;;;;;;;9.97;9.07;;;10.80;99.90;;;;;;5045508;28;20200;-74
2021/05/29 03:29:35;;;;;;;8.93;8.27;;;10.90;99.90;;;;;;5065573;28;20199;-75
2021/05/29 03:32:02;;;;;;;9.27;8.60;;;10.90;99.90;;;;;;5036245;28;22027;-75
2021/05/29 03:34:28;;;;;;;8.93;8.23;;;10.90;99.90;;;;;;5046208;28;20509;-75
2021/05/29 03:36:54;;;;;;;9.67;8.50;;;10.90;99.90;;;;;;5046541;28;20195;-76
2021/05/29 03:39:22;;;;;;;9.17;8.47;;;11.00;99.90;;;;;;5051150;28;20733;-75
2021/05/29 03:41:49;;;;;;;8.80;8.20;;;11.00;99.90;;;;;;5045437;28;20275;-74
2021/05/29 03:44:15;;;;;;;8.47;7.67;;;11.00;99.90;;;;;;5051038;28;20191;-74
2021/05/29 03:46:41;;;;;;;9.17;8.37;;;10.90;99.90;;;;;;5047951;28;20286;-75
2021/05/29 03:49:08;;;;;;;8.80;8.10;;;11.00;99.90;;;;;;5049148;28;20244;-75
2021/05/29 03:51:34;;;;;;;8.33;7.73;;;10.90;99.90;;;;;;5050762;28;20260;-75
2021/05/29 03:54:00;;;;;;;8.47;7.87;;;11.00;99.90;;;;;;5050932;28;20192;-74
2021/05/29 03:56:27;;;;;;;9.20;8.50;;;11.00;99.90;;;;;;5050973;28;20631;-75
2021/05/29 03:58:54;;;;;;;9.60;8.80;;;11.00;99.90;;;;;;5050944;28;20231;-77
2021/05/29 04:01:20;;;;;;;9.83;9.03;;;11.00;99.90;;;;;;5052198;28;20211;-78
2021/05/29 04:03:46;;;;;;;9.03;8.10;;;11.00;99.90;;;;;;5051329;28;20207;-78
2021/05/29 04:06:13;;;;;;;8.60;8.00;;;11.00;99.90;;;;;;5049484;28;21134;-77
2021/05/29 04:08:39;;;;;;;9.70;9.00;;;11.00;99.90;;;;;;5052292;28;20199;-77
2021/05/29 04:11:05;;;;;;;9.50;8.80;;;11.00;99.90;;;;;;5053084;28;20570;-79
2021/05/29 04:13:32;;;;;;;8.87;8.17;;;11.00;99.90;;;;;;5042523;28;20249;-77
2021/05/29 04:15:59;;;;;;;9.20;8.50;;;11.10;99.90;;;;;;5051443;28;20233;-76
2021/05/29 04:18:25;;;;;;;8.73;8.03;;;11.10;99.90;;;;;;5050181;28;20187;-76
2021/05/29 04:20:51;;;;;;;8.43;7.83;;;11.10;99.90;;;;;;5051750;28;20222;-76
2021/05/29 04:23:18;;;;;;;8.70;8.10;;;11.10;99.90;;;;;;5051843;28;20794;-76
2021/05/29 04:25:44;;;;;;;9.50;8.80;;;11.20;99.90;;;;;;5051931;28;20764;-77
2021/05/29 04:28:11;;;;;;;8.57;7.97;;;11.20;99.90;;;;;;5051775;28;20195;-77
2021/05/29 04:30:38;;;;;;;8.60;7.80;;;11.20;99.90;;;;;;5050607;28;20195;-78
2021/05/29 04:33:05;;;;;;;9.80;8.90;;;11.20;99.90;;;;;;5050506;28;20206;-76
2021/05/29 04:35:32;;;;;;;10.47;8.40;;;11.30;99.90;;;;;;5045017;28;20219;-77
2021/05/29 04:37:58;;;;;;;9.30;8.50;;;11.30;99.90;;;;;;5053487;28;20191;-76
2021/05/29 04:40:26;;;;;;;9.77;8.97;;;11.20;99.90;;;;;;5050759;28;20707;-77
2021/05/29 04:42:53;;;;;;;9.10;8.40;;;11.20;99.90;;;;;;5049940;28;20251;-77
2021/05/29 04:45:20;;;;;;;9.30;8.40;;;11.30;99.90;;;;;;5049531;28;20215;-78
2021/05/29 04:47:47;;;;;;;9.70;8.90;;;11.40;99.90;;;;;;5050674;28;20202;-77
2021/05/29 04:50:15;;;;;;;10.27;9.40;;;11.40;99.90;;;;;;5050695;28;20203;-76
2021/05/29 04:52:42;;;;;;;9.10;8.40;;;11.50;99.90;;;;;;5050537;28;20217;-74
2021/05/29 04:55:09;;;;;;;8.50;7.90;;;11.60;99.90;;;;;;5050409;28;20222;-74
2021/05/29 04:57:36;;;;;;;8.33;7.73;;;11.60;99.90;;;;;;5050698;28;20245;-75
2021/05/29 05:00:05;;;;;;;9.03;8.33;;;11.70;99.90;;;;;;5049937;28;20347;-75
2021/05/29 05:02:32;;;;;;;9.50;8.70;;;11.80;99.90;;;;;;5051143;28;20190;-75
2021/05/29 05:04:58;;;;;;;9.10;8.40;;;11.80;99.90;;;;;;5048730;28;20312;-74
2021/05/29 05:07:27;;;;;;;10.83;7.90;;;12.00;99.90;;;;;;5050708;28;20720;-75
2021/05/29 05:09:53;;;;;;;9.53;8.73;;;12.10;99.90;;;;;;5051163;28;20192;-75
2021/05/29 05:12:20;;;;;;;7.20;6.60;;;12.00;99.90;;;;;;5050974;28;20203;-76
2021/05/29 05:14:48;;;;;;;8.63;7.93;;;12.10;99.90;;;;;;5050455;28;20227;-75
2021/05/29 05:17:14;;;;;;;7.07;6.47;;;12.20;99.90;;;;;;5050654;28;20569;-75
2021/05/29 05:19:41;;;;;;;7.40;6.80;;;12.30;99.90;;;;;;5051057;28;20575;-75
2021/05/29 05:22:07;;;;;;;7.67;7.03;;;12.40;99.90;;;;;;5049802;28;20200;-75
2021/05/29 05:24:34;;;;;;;7.80;7.20;;;12.50;99.90;;;;;;5051422;28;20245;-75
2021/05/29 05:27:00;;;;;;;7.93;7.33;;;12.70;99.90;;;;;;5055401;28;20207;-77
2021/05/29 05:29:27;;;;;;;8.03;7.43;;;13.00;99.90;;;;;;5049824;28;20602;-76
2021/05/29 05:31:53;;;;;;;7.57;6.87;;;13.20;99.90;;;;;;5053907;28;20617;-75
2021/05/29 05:34:20;;;;;;;8.17;7.50;;;13.50;99.90;;;;;;5053797;28;20735;-75
2021/05/29 05:36:46;;;;;;;7.13;5.70;;;13.80;99.90;;;;;;5055341;28;20198;-74
2021/05/29 05:39:13;;;;;;;5.50;4.80;;;14.10;99.90;;;;;;5055255;28;20578;-76
2021/05/29 05:41:41;;;;;;;6.90;4.77;;;14.30;99.90;;;;;;5053702;28;20222;-75
2021/05/29 05:44:08;;;;;;;4.50;4.10;;;14.80;99.90;;;;;;5054603;28;20258;-76
2021/05/29 05:46:35;;;;;;;4.97;4.43;;;15.30;99.90;;;;;;5053353;28;20711;-76
2021/05/29 05:49:01;;;;;;;5.77;5.20;;;15.60;99.90;;;;;;5050626;28;20194;-75
2021/05/29 05:51:30;;;;;;;5.13;4.70;;;16.00;99.90;;;;;;5054580;28;20203;-76
2021/05/29 05:53:56;;;;;;;5.10;4.70;;;16.90;99.90;;;;;;5049333;28;20201;-75
2021/05/29 05:56:26;;;;;;;5.43;4.97;;;18.10;99.90;;;;;;5054154;28;20650;-76
2021/05/29 05:58:55;;;;;;;5.20;4.70;;;18.70;99.90;;;;;;5053076;28;20672;-76
2021/05/29 06:01:21;;;;;;;6.13;5.63;;;18.50;99.90;;;;;;5048103;28;20227;-75
2021/05/29 06:03:47;;;;;;;5.23;4.73;;;18.20;99.90;;;;;;5054364;28;20573;-76
2021/05/29 06:06:14;;;;;;;5.50;4.57;;;17.80;99.90;;;;;;5054065;28;20219;-75
2021/05/29 06:08:40;;;;;;;4.93;4.50;;;17.80;99.90;;;;;;5054285;28;20817;-75
2021/05/29 06:11:06;;;;;;;5.20;4.80;;;17.90;99.90;;;;;;5044397;28;20220;-76
2021/05/29 06:19:11;;;;;;;5.47;4.97;;;18.70;99.90;;;;;;5049614;28;20206;-76
2021/05/29 06:21:38;;;;;;;5.70;4.73;;;19.10;99.90;;;;;;5050462;28;20263;-78
2021/05/29 06:24:05;;;;;;;5.10;4.60;;;19.10;99.90;;;;;;5042744;28;20268;-76
2021/05/29 06:26:31;;;;;;;5.00;4.50;;;19.00;99.90;;;;;;5054433;28;20278;-75
2021/05/29 06:28:58;;;;;;;5.97;4.80;;;19.40;99.90;;;;;;5053100;28;20586;-77
2021/05/29 06:31:25;;;;;;;5.70;5.30;;;19.40;99.90;;;;;;5053978;28;20213;-78
2021/05/29 06:33:51;;;;;;;7.07;6.57;;;19.00;99.90;;;;;;5054784;28;20197;-77
2021/05/29 06:36:17;;;;;;;7.73;7.23;;;18.90;99.90;;;;;;5050497;28;20230;-76
2021/05/29 06:38:45;;;;;;;5.40;4.90;;;18.60;99.90;;;;;;5051451;28;20245;-78
2021/05/29 06:41:11;;;;;;;6.90;6.40;;;18.10;99.90;;;;;;5052898;28;20646;-76
2021/05/29 06:43:38;;;;;;;7.40;6.90;;;17.50;99.90;;;;;;5053167;28;20200;-77
2021/05/29 06:46:04;;;;;;;7.27;6.77;;;17.20;99.90;;;;;;5052888;28;20231;-77
2021/05/29 06:48:31;;;;;;;7.60;6.93;;;17.80;99.90;;;;;;5049034;28;20199;-77
2021/05/29 06:50:58;;;;;;;7.10;6.60;;;18.70;99.90;;;;;;5050220;28;20188;-76
2021/05/29 06:53:28;;;;;;;7.23;6.73;;;19.30;99.90;;;;;;5051866;28;20218;-76
2021/05/29 06:58:47;;;;;;;7.17;6.77;;;20.30;99.90;;;;;;5046479;28;20202;-77
2021/05/29 07:01:13;;;;;;;7.30;6.80;;;20.80;99.90;;;;;;5055050;28;20206;-77
2021/05/29 07:03:41;;;;;;;7.27;6.77;;;21.10;99.90;;;;;;5055083;28;20202;-77
2021/05/29 07:06:07;;;;;;;7.70;6.90;;;21.30;99.90;;;;;;5054759;28;20213;-76
2021/05/29 07:08:33;;;;;;;7.20;6.70;;;21.20;99.90;;;;;;5055647;28;20203;-77
2021/05/29 07:11:00;;;;;;;7.37;6.77;;;21.40;99.90;;;;;;5048621;28;20207;-77
2021/05/29 07:13:26;;;;;;;7.80;7.00;;;21.10;99.90;;;;;;5055138;28;20692;-79
2021/05/29 07:15:52;;;;;;;7.40;6.93;;;21.00;99.90;;;;;;5054398;28;20223;-79
2021/05/29 07:18:21;;;;;;;7.13;6.63;;;21.60;99.90;;;;;;5046152;28;20222;-81
2021/05/29 07:20:48;;;;;;;7.37;6.87;;;22.00;99.90;;;;;;5050903;28;20223;-77
2021/05/29 07:23:15;;;;;;;7.73;6.80;;;22.20;99.90;;;;;;5052082;28;20195;-77
2021/05/29 07:25:42;;;;;;;7.13;6.63;;;22.10;99.90;;;;;;5048287;28;20223;-77
2021/05/29 07:28:08;;;;;;;6.87;6.37;;;22.00;99.90;;;;;;5064701;28;20203;-76
2021/05/29 07:30:35;;;;;;;6.83;6.33;;;22.10;99.90;;;;;;5050190;28;20218;-76
2021/05/29 07:33:01;;;;;;;6.70;6.30;;;22.10;99.90;;;;;;5052866;28;20628;-77
2021/05/29 07:35:28;;;;;;;7.20;6.60;;;22.00;99.90;;;;;;5052318;28;20273;-77
2021/05/29 07:37:55;;;;;;;6.60;6.10;;;22.10;99.90;;;;;;5050814;28;20298;-76
2021/05/29 07:40:22;;;;;;;6.63;6.17;;;22.00;99.90;;;;;;5052562;28;20222;-77
2021/05/29 07:42:48;;;;;;;7.00;6.40;;;22.10;99.90;;;;;;5051324;28;20214;-76
2021/05/29 07:45:15;;;;;;;7.17;6.50;;;21.90;99.90;;;;;;5051079;28;20273;-76
2021/05/29 07:47:43;;;;;;;6.50;6.00;;;22.00;99.90;;;;;;5052809;28;20219;-78
2021/05/29 07:50:11;;;;;;;6.77;6.37;;;22.20;99.90;;;;;;5064209;28;20703;-79
2021/05/29 07:52:37;;;;;;;6.53;6.13;;;22.50;99.90;;;;;;5047143;28;20188;-78
2021/05/29 07:55:07;;;;;;;6.50;6.10;;;22.50;99.60;;;;;;5053832;28;20226;-78
2021/05/29 07:57:33;;;;;;;6.97;6.57;;;22.70;99.90;;;;;;5044322;28;20222;-77
2021/05/29 08:00:00;;;;;;;7.10;6.60;;;22.70;99.10;;;;;;5051518;28;20199;-78
2021/05/29 08:02:29;;;;;;;6.60;6.20;;;22.30;99.40;;;;;;5047832;28;20222;-80
2021/05/29 08:04:55;;;;;;;7.10;6.57;;;22.60;99.30;;;;;;5051204;28;20219;-78
2021/05/29 08:07:21;;;;;;;6.83;6.33;;;22.60;99.90;;;;;;5046891;28;20196;-77
2021/05/29 08:09:48;;;;;;;6.90;6.50;;;22.50;98.70;;;;;;5053324;28;20253;-77
2021/05/29 08:12:15;;;;;;;6.60;6.20;;;22.90;96.70;;;;;;5053361;28;20281;-77
2021/05/29 08:14:41;;;;;;;6.57;6.00;;;23.10;98.00;;;;;;5038729;28;20596;-79
2021/05/29 08:17:08;;;;;;;6.80;6.23;;;23.30;95.80;;;;;;5051171;28;20211;-78
2021/05/29 08:19:34;;;;;;;6.40;6.00;;;23.30;95.80;;;;;;5052528;28;20203;-77
2021/05/29 08:22:00;;;;;;;7.10;6.50;;;22.90;93.80;;;;;;5050319;28;20227;-78
2021/05/29 08:24:27;;;;;;;6.20;5.80;;;22.70;95.50;;;;;;5049706;28;20687;-77
2021/05/29 08:26:54;;;;;;;6.27;5.80;;;22.70;96.70;;;;;;5047257;28;20195;-77
2021/05/29 08:29:21;;;;;;;6.60;6.20;;;23.10;97.90;;;;;;5045152;28;20212;-78
2021/05/29 08:31:47;;;;;;;6.40;6.00;;;23.30;95.90;;;;;;5046380;28;20254;-78
2021/05/29 08:34:14;;;;;;;4.67;4.33;;;22.90;96.00;;;;;;5051212;28;20620;-77
2021/05/29 08:36:41;;;;;;;4.23;3.80;;;23.00;95.40;;;;;;5050950;28;20203;-78
2021/05/29 08:39:09;;;;;;;4.20;3.80;;;23.10;95.90;;;;;;5050694;28;20229;-78
2021/05/29 08:41:36;;;;;;;3.90;3.70;;;23.40;93.20;;;;;;5050636;28;20215;-78
2021/05/29 08:44:03;;;;;;;4.60;3.83;;;22.90;92.70;;;;;;5042258;28;20206;-77
2021/05/29 08:46:30;;;;;;;5.30;3.70;;;23.30;95.10;;;;;;5051845;28;20285;-78
2021/05/29 08:48:57;;;;;;;6.60;6.10;;;23.20;92.70;;;;;;5052468;28;20202;-78
2021/05/29 08:51:24;;;;;;;7.80;7.30;;;22.60;92.80;;;;;;5045642;28;20215;-80
2021/05/29 08:53:52;;;;;;;7.93;7.17;;;22.20;92.60;;;;;;5051583;28;20578;-78
2021/05/29 08:56:22;;;;;;;6.17;5.73;;;22.60;93.40;;;;;;5051829;28;20731;-79
2021/05/29 08:58:48;;;;;;;6.93;6.30;;;22.40;92.60;;;;;;5050708;28;20215;-78
2021/05/29 09:01:15;;;;;;;7.60;7.00;;;22.30;92.80;;;;;;5052138;28;20215;-78
2021/05/29 09:03:45;;;;;;;6.83;6.30;;;22.40;92.30;;;;;;5051455;28;20203;-77
2021/05/29 09:06:13;;;;;;;7.33;6.83;;;22.60;92.70;;;;;;5047723;28;20232;-79
2021/05/29 09:08:50;;;;;;;4.03;3.70;;;22.70;93.30;;;;;;5051497;28;20206;-78
2021/05/29 09:11:44;;;;;;;7.93;7.03;;;23.00;92.80;;;;;;5050153;28;20199;-78
2021/05/29 09:14:40;;;;;;;6.70;6.30;;;23.20;91.40;;;;;;5051489;28;20192;-78
2021/05/29 09:17:16;;;;;;;6.80;6.20;;;23.60;91.30;;;;;;5046568;28;20226;-78
2021/05/29 09:19:55;;;;;;;3.97;3.67;;;24.00;92.90;;;;;;5044627;28;20212;-78
2021/05/29 09:22:23;;;;;;;6.77;6.37;;;24.70;91.10;;;;;;5051488;28;20605;-77
2021/05/29 09:25:02;;;;;;;6.73;6.33;;;24.40;90.50;;;;;;5074731;22;20227;-77
2021/05/29 09:27:28;;;;;;;3.50;3.30;;;23.80;87.30;;;;;;5026096;28;20206;-77
2021/05/29 09:29:55;;;;;;;6.10;5.80;;;22.70;91.00;;;;;;5012456;28;20196;-77
2021/05/29 09:32:21;;;;;;;6.00;5.60;;;22.70;91.20;;;;;;5026773;28;20193;-77
2021/05/29 09:34:50;;;;;;;5.90;5.50;;;23.00;89.20;;;;;;5013205;28;20249;-77
2021/05/29 09:37:22;;;;;;;5.70;5.40;;;23.10;90.30;;;;;;5011597;28;20618;-76
2021/05/29 09:39:50;;;;;;;6.73;6.23;;;23.30;87.50;;;;;;5006901;28;20215;-78
2021/05/29 09:42:18;;;;;;;6.03;5.53;;;23.80;88.60;;;;;;5011321;28;20246;-77
2021/05/29 09:44:45;;;;;;;6.67;6.17;;;24.10;85.80;;;;;;5006640;28;20208;-78
2021/05/29 09:47:14;;;;;;;6.23;5.83;;;23.80;84.30;;;;;;5012160;28;20688;-77
2021/05/29 09:49:51;;;;;;;7.93;7.43;;;23.60;83.20;;;;;;5012754;28;20205;-77
2021/05/29 09:52:30;;;;;;;6.57;6.17;;;23.80;83.60;;;;;;5012281;28;20283;-77
2021/05/29 09:54:58;;;;;;;8.20;7.70;;;23.80;83.30;;;;;;5011156;28;20208;-76
2021/05/29 09:57:26;;;;;;;6.67;6.27;;;24.40;83.60;;;;;;5010613;28;20200;-75
2021/05/29 09:59:57;;;;;;;4.53;4.13;;;24.60;81.60;;;;;;5008652;28;20731;-77
2021/05/29 10:02:24;;;;;;;6.80;6.10;;;24.60;79.80;;;;;;5007400;28;20704;-78
2021/05/29 10:04:55;;;;;;;6.43;6.03;;;24.10;81.20;;;;;;5010395;28;20665;-78
2021/05/29 10:07:23;;;;;;;5.80;5.30;;;23.50;80.30;;;;;;5010426;28;20262;-78
2021/05/29 10:09:51;;;;;;;5.70;5.40;;;23.60;84.70;;;;;;5002404;28;20201;-79
2021/05/29 10:12:18;;;;;;;6.20;5.70;;;23.50;82.20;;;;;;5010304;28;20205;-77
2021/05/29 10:14:45;;;;;;;5.87;5.47;;;22.80;84.30;;;;;;5007649;28;20208;-77
2021/05/29 10:17:13;;;;;;;5.40;5.10;;;22.60;89.50;;;;;;5010871;28;20211;-77
2021/05/29 10:19:41;;;;;;;5.67;5.27;;;22.20;87.00;;;;;;5012987;28;20206;-78
2021/05/29 10:22:10;;;;;;;5.63;5.20;;;21.70;87.70;;;;;;5013617;28;20220;-77
2021/05/29 10:24:38;;;;;;;5.70;5.30;;;21.60;86.80;;;;;;5014930;28;20209;-77
2021/05/29 10:27:09;;;;;;;5.23;4.93;;;21.90;87.90;;;;;;5013185;28;20232;-76
2021/05/29 10:29:36;;;;;;;5.43;5.13;;;22.00;87.00;;;;;;5008124;28;20575;-78
2021/05/29 10:32:14;;;;;;;5.60;5.20;;;22.80;89.20;;;;;;5011365;28;20201;-76
2021/05/29 10:34:58;;;;;;;5.57;5.10;;;22.70;86.90;;;;;;5009413;28;20207;-79
2021/05/29 10:37:33;;;;;;;5.43;5.03;;;23.00;84.90;;;;;;5025615;28;20204;-76
2021/05/29 10:40:25;;;;;;;5.47;5.17;;;23.30;82.70;;;;;;5008321;28;20222;-79
2021/05/29 10:43:20;;;;;;;5.40;5.00;;;23.70;86.30;;;;;;5014557;28;20201;-81
2021/05/29 10:46:05;;;;;;;5.23;4.87;;;23.10;86.70;;;;;;4967091;28;20240;-77
2021/05/29 10:48:46;;;;;;;5.60;5.30;;;23.10;86.30;;;;;;5001102;28;20212;-77
2021/05/29 10:51:13;;;;;;;5.00;4.70;;;23.50;86.50;;;;;;5012336;28;20466;-77
2021/05/29 10:53:47;;;;;;;6.17;5.57;;;23.50;85.10;;;;;;5008581;28;20604;-78
2021/05/29 10:56:34;;;;;;;6.23;5.83;;;23.30;86.70;;;;;;5008760;28;20303;-78
2021/05/29 10:59:13;;;;;;;5.40;5.00;;;22.20;86.10;;;;;;5008039;28;20741;-77
2021/05/29 11:02:02;;;;;;;5.10;4.80;;;21.60;86.60;;;;;;5007170;28;20281;-77
2021/05/29 11:04:29;;;;;;;5.30;5.00;;;21.10;88.10;;;;;;5006544;28;20208;-79
2021/05/29 11:06:57;;;;;;;5.33;5.03;;;21.10;90.50;;;;;;5013430;28;20224;-78
2021/05/29 11:09:56;;;;;;;5.13;4.83;;;21.00;90.30;;;;;;5013032;28;20204;-78
2021/05/29 11:12:52;;;;;;;5.20;4.90;;;21.40;89.70;;;;;;4956985;28;20212;-78
2021/05/29 11:15:51;;;;;;;5.10;4.70;;;21.70;89.60;;;;;;5012069;28;20228;-78
2021/05/29 11:18:17;;;;;;;5.00;4.70;;;21.80;90.10;;;;;;5010481;28;20205;-77
2021/05/29 11:21:14;;;;;;;5.10;4.80;;;21.60;90.50;;;;;;5013974;28;20223;-77
2021/05/29 11:23:40;;;;;;;5.00;4.70;;;21.10;88.60;;;;;;4940200;28;20205;-77
2021/05/29 11:26:07;;;;;;;5.30;4.90;;;21.10;88.80;;;;;;4993538;28;20248;-78
2021/05/29 11:28:34;;;;;;;5.43;5.13;;;21.30;90.60;;;;;;5013994;28;20220;-77
2021/05/29 11:31:02;;;;;;;5.57;5.10;;;21.60;90.40;;;;;;5008769;28;20693;-78
2021/05/29 11:33:29;;;;;;;5.40;5.10;;;21.90;88.30;;;;;;5008008;28;20200;-78
2021/05/29 11:35:55;;;;;;;5.17;4.87;;;22.00;89.20;;;;;;5012196;28;20224;-78
2021/05/29 11:38:24;;;;;;;5.20;4.90;;;22.20;90.00;;;;;;5010942;28;20196;-80
2021/05/29 11:40:57;;;;;;;5.30;5.00;;;21.70;87.80;;;;;;5006964;28;20220;-80
2021/05/29 11:43:35;;;;;;;5.40;5.10;;;21.20;89.90;;;;;;5009346;28;20189;-79
2021/05/29 11:46:05;;;;;;;5.30;4.90;;;21.30;90.80;;;;;;5011679;28;20220;-79
2021/05/29 11:48:33;;;;;;;5.53;5.13;;;21.30;91.10;;;;;;5011563;28;20199;-78
2021/05/29 11:51:10;;;;;;;5.27;4.97;;;21.30;90.60;;;;;;5013026;28;20271;-78
2021/05/29 11:53:44;;;;;;;5.17;4.87;;;21.20;90.10;;;;;;5006327;28;20196;-78
2021/05/29 11:56:12;;;;;;;5.63;5.30;;;21.10;90.90;;;;;;5010971;28;20231;-78
2021/05/29 11:58:46;;;;;;;5.40;5.10;;;21.10;90.80;;;;;;5011786;28;20204;-78
2021/05/29 12:01:15;;;;;;;6.00;5.40;;;21.10;90.40;;;;;;5011985;28;20661;-78
2021/05/29 12:03:45;;;;;;;5.20;4.90;;;21.00;89.20;;;;;;5013362;28;20236;-78
2021/05/29 12:06:12;;;;;;;5.80;5.40;;;21.10;88.40;;;;;;5013026;28;20221;-78
2021/05/29 12:08:55;;;;;;;5.90;5.50;;;21.50;89.10;;;;;;5012422;28;20199;-78
2021/05/29 12:11:25;;;;;;;5.50;5.10;;;21.10;83.90;;;;;;5013203;28;20257;-78
2021/05/29 12:13:57;;;;;;;5.53;5.20;;;21.10;90.20;;;;;;5011604;28;20620;-78
2021/05/29 12:16:32;;;;;;;6.67;5.17;;;21.00;91.40;;;;;;5010573;28;20230;-77
2021/05/29 12:18:59;;;;;;;5.43;5.13;;;20.90;90.40;;;;;;5012856;28;20198;-78
2021/05/29 12:21:51;;;;;;;5.20;4.90;;;20.60;90.80;;;;;;5011500;28;20250;-78
2021/05/29 12:24:19;;;;;;;5.60;5.20;;;20.60;91.70;;;;;;5012960;28;20211;-78
2021/05/29 12:26:46;;;;;;;5.10;4.80;;;20.30;91.90;;;;;;5010003;28;20267;-78
2021/05/29 12:29:13;;;;;;;5.20;4.80;;;20.10;90.50;;;;;;5012607;28;20688;-78
2021/05/29 12:31:48;;;;;;;5.20;4.80;;;20.20;90.90;;;;;;5013172;28;20267;-78
2021/05/29 12:34:15;;;;;;;5.10;4.70;;;20.30;90.90;;;;;;5012132;28;20199;-78
2021/05/29 12:37:07;;;;;;;4.97;4.67;;;20.70;90.30;;;;;;5013126;28;20704;-76
2021/05/29 12:39:51;;;;;;;5.40;5.00;;;20.80;89.80;;;;;;5012217;28;20667;-80
2021/05/29 12:42:34;;;;;;;4.93;4.63;;;20.80;89.00;;;;;;5013471;28;20272;-78
2021/05/29 12:45:04;;;;;;;5.23;4.93;;;20.70;87.10;;;;;;5013549;28;20297;-78
2021/05/29 12:47:33;;;;;;;7.27;6.77;;;20.60;87.40;;;;;;5004814;28;20229;-79
2021/05/29 12:50:12;;;;;;;5.60;5.23;;;20.50;87.80;;;;;;5013313;28;20202;-78
2021/05/29 12:52:39;;;;;;;5.63;5.23;;;20.60;89.60;;;;;;5020088;28;20745;-78
2021/05/29 12:55:06;;;;;;;5.30;5.00;;;20.70;87.60;;;;;;5006736;28;20592;-77
2021/05/29 12:57:39;;;;;;;3.90;2.50;;;21.00;89.20;;;;;;5009852;28;20206;-78
2021/05/29 13:00:21;;;;;;;3.97;3.70;;;21.10;88.20;;;;;;5009309;28;20214;-78
2021/05/29 13:08:45;;;;;;;5.20;4.70;;;21.00;87.80;;;;;;5008959;28;20352;-79